»·PEaware :: SWA120 KBUR-KLAS

SWA120 :: KBUR-KLAS

FLIGHT INFORMATION

Flight Status: Arrived
Operator:
Southwest Airlines
More flights by this operator :: More flights under this callsign
Pilot: Anonymous 13704 (13704)
Aircraft: BOEING 737-800
(B738)
More flights by this aircraft type
Origin: KBUR Bob Hope-Burbank
United States
Destination: KLAS McCarran Intl
United States
More flights between these airports :: More routes between these airports
Route: +SLAPP1 MISEN KEPEC6
File this flight plan on PilotEdge
Remarks: I-5 Rating
Altitude:
(Current/Filed)
29,000ft
Speed:
(Current/Filed)
280kts
Departed: 22-Mar-20 04:07 PM
Arrived: 22-Mar-20 04:50 PM
Distance/Time
Traveled:
194nm/0:42
Distance/Time
To Go:
Arrived

Flight Plot

Page will automatically refresh every two minutes.

Flight plan parsing failed; only flown route is shown


Map Options




Map Legend


Flown Route
Filed Route
Departure Airport
Arrival Airport
Navaid (VOR, NDB)
Fix

Horizontal Profiles

Position Reports

Time Latitude Longitude Heading Altitude Ground
Speed
22-Mar-20 15:39 34.196828 -118.351053 180 788ft 0kts
22-Mar-20 15:40 34.196828 -118.351053 180 788ft 0kts
22-Mar-20 15:41 34.196828 -118.351053 180 788ft 0kts
22-Mar-20 15:42 34.196828 -118.351053 180 788ft 0kts
22-Mar-20 15:43 34.196828 -118.351053 180 788ft 0kts
22-Mar-20 15:44 34.196828 -118.351053 180 788ft 0kts
22-Mar-20 15:45 34.196828 -118.351053 180 788ft 0kts
22-Mar-20 15:46 34.196828 -118.351053 180 788ft 0kts
22-Mar-20 15:47 34.196828 -118.351053 180 788ft 0kts
22-Mar-20 15:48 34.196828 -118.351053 180 788ft 0kts
22-Mar-20 15:49 34.196828 -118.351053 180 788ft 0kts
22-Mar-20 15:50 34.196828 -118.351053 180 788ft 0kts
22-Mar-20 15:51 34.196828 -118.351053 180 788ft 0kts
22-Mar-20 15:52 34.196829 -118.351053 180 788ft 0kts
22-Mar-20 15:53 34.196829 -118.351053 180 788ft 0kts
22-Mar-20 15:54 34.196829 -118.351053 180 788ft 0kts
22-Mar-20 15:55 34.196829 -118.351053 180 788ft 0kts
22-Mar-20 15:56 34.197161 -118.350625 275 788ft 2kts
22-Mar-20 15:57 34.197153 -118.350407 268 788ft 0kts
22-Mar-20 15:58 34.197153 -118.350407 268 788ft 0kts
22-Mar-20 15:59 34.197153 -118.350407 268 788ft 0kts
22-Mar-20 16:00 34.197164 -118.351769 271 788ft 14kts
22-Mar-20 16:01 34.198999 -118.355414 347 788ft 17kts
22-Mar-20 16:02 34.204297 -118.356879 347 788ft 22kts
22-Mar-20 16:03 34.210610 -118.358632 347 788ft 19kts
22-Mar-20 16:04 34.211381 -118.358904 328 788ft 0kts
22-Mar-20 16:05 34.211646 -118.360191 200 788ft 10kts
22-Mar-20 16:06 34.191140 -118.354849 172 1179ft 157kts
22-Mar-20 16:07 34.151720 -118.386305 222 3038ft 212kts
22-Mar-20 16:08 34.156902 -118.448532 340 5399ft 266kts
22-Mar-20 16:09 34.234361 -118.461714 6 8286ft 296kts
22-Mar-20 16:10 34.309977 -118.414413 27 10776ft 336kts
22-Mar-20 16:11 34.399523 -118.359806 21 13094ft 375kts
22-Mar-20 16:12 34.494327 -118.299930 37 15898ft 399kts
22-Mar-20 16:13 34.582587 -118.212990 38 18441ft 420kts
22-Mar-20 16:14 34.661376 -118.104816 72 19947ft 442kts
22-Mar-20 16:15 34.689494 -117.955320 88 21765ft 463kts
22-Mar-20 16:16 34.701332 -117.796914 91 23662ft 482kts
22-Mar-20 16:17 34.709512 -117.630404 94 25244ft 504kts
22-Mar-20 16:18 34.730944 -117.456580 79 26870ft 533kts
22-Mar-20 16:19 34.775219 -117.281140 75 28310ft 552kts
22-Mar-20 16:20 34.822794 -117.100489 75 29076ft 567kts
22-Mar-20 16:21 34.870368 -116.919655 75 29083ft 551kts
22-Mar-20 16:22 34.923888 -116.743247 65 29086ft 558kts
22-Mar-20 16:23 35.002627 -116.582831 54 26985ft 546kts
22-Mar-20 16:24 35.087054 -116.433878 49 24406ft 523kts
22-Mar-20 16:25 35.179256 -116.308510 43 24070ft 497kts
22-Mar-20 16:26 35.275370 -116.187528 43 23920ft 496kts
22-Mar-20 16:27 35.369763 -116.068660 43 22886ft 477kts
22-Mar-20 16:28 35.460906 -115.953613 43 21876ft 463kts
22-Mar-20 16:29 35.547217 -115.844271 44 20171ft 434kts
22-Mar-20 16:30 35.628764 -115.740490 44 17887ft 412kts
22-Mar-20 16:31 35.705266 -115.642329 45 14922ft 384kts
22-Mar-20 16:32 35.787424 -115.576196 8 13011ft 324kts
22-Mar-20 16:33 35.875393 -115.568924 359 12977ft 317kts
22-Mar-20 16:34 35.960325 -115.547848 34 12978ft 311kts
22-Mar-20 16:35 36.004080 -115.461586 69 12527ft 316kts
22-Mar-20 16:36 36.028383 -115.360514 89 10683ft 293kts
22-Mar-20 16:37 36.023190 -115.265086 97 9384ft 269kts
22-Mar-20 16:38 36.016749 -115.176110 97 8830ft 245kts
22-Mar-20 16:39 36.032449 -115.100800 30 7710ft 255kts
22-Mar-20 16:40 36.096606 -115.069779 21 5774ft 240kts
22-Mar-20 16:41 36.153030 -115.045106 21 5474ft 204kts
22-Mar-20 16:42 36.206521 -115.021843 21 5475ft 202kts
22-Mar-20 16:43 36.255805 -115.024217 291 5475ft 197kts
22-Mar-20 16:44 36.226704 -115.070998 211 5109ft 187kts
22-Mar-20 16:45 36.188631 -115.102652 209 3958ft 146kts
22-Mar-20 16:46 36.153571 -115.126218 200 3397ft 146kts
22-Mar-20 16:47 36.115775 -115.147332 200 2623ft 149kts
22-Mar-20 16:49 36.084768 -115.164722 190 2192ft 44kts
22-Mar-20 16:50 36.083119 -115.164808 176 2192ft 0kts
22-Mar-20 16:51 36.081679 -115.163306 105 2192ft 10kts
22-Mar-20 16:52 36.081609 -115.158040 90 2192ft 23kts
22-Mar-20 16:53 36.082088 -115.152928 359 2192ft 10kts
22-Mar-20 16:54 36.082320 -115.152929 0 2192ft 0kts
22-Mar-20 16:55 36.082320 -115.152929 0 2192ft 0kts

Navigation Log

Ident Type
Flight plan parsing failed, navigation log unavailable